sensor_id;sensor_type;location;lat;lon;timestamp;temperature;humidity
65752;DHT22;52486;51.098;13.770;2022-07-22T00:01:05;26.80;49.70
65752;DHT22;52486;51.098;13.770;2022-07-22T00:03:31;26.90;49.70
65752;DHT22;52486;51.098;13.770;2022-07-22T00:05:57;26.90;49.80
65752;DHT22;52486;51.098;13.770;2022-07-22T00:08:22;26.90;49.80
65752;DHT22;52486;51.098;13.770;2022-07-22T00:10:48;26.90;49.70
65752;DHT22;52486;51.098;13.770;2022-07-22T00:13:14;26.90;49.70
65752;DHT22;52486;51.098;13.770;2022-07-22T00:15:39;26.80;49.60
65752;DHT22;52486;51.098;13.770;2022-07-22T00:18:05;26.80;49.60
65752;DHT22;52486;51.098;13.770;2022-07-22T00:20:31;26.90;49.70
65752;DHT22;52486;51.098;13.770;2022-07-22T00:22:56;26.80;49.60
65752;DHT22;52486;51.098;13.770;2022-07-22T00:25:24;26.80;49.60
65752;DHT22;52486;51.098;13.770;2022-07-22T00:27:49;26.90;49.70
65752;DHT22;52486;51.098;13.770;2022-07-22T00:30:15;26.90;49.70
65752;DHT22;52486;51.098;13.770;2022-07-22T00:32:40;26.90;49.70
65752;DHT22;52486;51.098;13.770;2022-07-22T00:35:06;26.90;49.70
65752;DHT22;52486;51.098;13.770;2022-07-22T00:37:32;26.90;49.60
65752;DHT22;52486;51.098;13.770;2022-07-22T00:39:58;26.90;49.60
65752;DHT22;52486;51.098;13.770;2022-07-22T00:42:23;26.90;49.60
65752;DHT22;52486;51.098;13.770;2022-07-22T00:44:49;26.90;49.60
65752;DHT22;52486;51.098;13.770;2022-07-22T00:47:15;26.90;49.60
65752;DHT22;52486;51.098;13.770;2022-07-22T00:49:40;26.90;49.60
65752;DHT22;52486;51.098;13.770;2022-07-22T00:52:06;26.90;49.60
65752;DHT22;52486;51.098;13.770;2022-07-22T00:54:32;26.90;49.50
65752;DHT22;52486;51.098;13.770;2022-07-22T00:56:58;26.90;49.50
65752;DHT22;52486;51.098;13.770;2022-07-22T00:59:24;26.90;49.50
65752;DHT22;52486;51.098;13.770;2022-07-22T01:01:50;26.90;49.50
65752;DHT22;52486;51.098;13.770;2022-07-22T01:04:16;26.90;49.50
65752;DHT22;52486;51.098;13.770;2022-07-22T01:06:42;26.90;49.50
65752;DHT22;52486;51.098;13.770;2022-07-22T01:09:12;26.90;49.50
65752;DHT22;52486;51.098;13.770;2022-07-22T01:11:39;26.90;49.50
65752;DHT22;52486;51.098;13.770;2022-07-22T01:14:04;26.90;49.50
65752;DHT22;52486;51.098;13.770;2022-07-22T01:16:30;26.90;49.40
65752;DHT22;52486;51.098;13.770;2022-07-22T01:18:56;26.90;49.50
65752;DHT22;52486;51.098;13.770;2022-07-22T01:21:22;26.90;49.40
65752;DHT22;52486;51.098;13.770;2022-07-22T01:23:47;26.90;49.40
65752;DHT22;52486;51.098;13.770;2022-07-22T01:26:13;26.90;49.40
65752;DHT22;52486;51.098;13.770;2022-07-22T01:28:40;26.90;49.40
65752;DHT22;52486;51.098;13.770;2022-07-22T01:31:05;26.90;49.40
65752;DHT22;52486;51.098;13.770;2022-07-22T01:33:31;26.90;49.30
65752;DHT22;52486;51.098;13.770;2022-07-22T01:35:58;26.90;49.30
65752;DHT22;52486;51.098;13.770;2022-07-22T01:38:23;26.90;49.30
65752;DHT22;52486;51.098;13.770;2022-07-22T01:40:49;26.90;49.30
65752;DHT22;52486;51.098;13.770;2022-07-22T01:43:15;26.90;49.30
65752;DHT22;52486;51.098;13.770;2022-07-22T01:45:44;26.90;49.30
65752;DHT22;52486;51.098;13.770;2022-07-22T01:48:10;26.90;49.30
65752;DHT22;52486;51.098;13.770;2022-07-22T01:50:36;26.90;49.30
65752;DHT22;52486;51.098;13.770;2022-07-22T01:53:02;26.90;49.20
65752;DHT22;52486;51.098;13.770;2022-07-22T01:55:28;26.90;49.20
65752;DHT22;52486;51.098;13.770;2022-07-22T01:57:54;26.90;49.20
65752;DHT22;52486;51.098;13.770;2022-07-22T02:00:20;26.90;49.30
65752;DHT22;52486;51.098;13.770;2022-07-22T02:02:46;26.90;49.20
65752;DHT22;52486;51.098;13.770;2022-07-22T02:05:12;26.90;49.20
65752;DHT22;52486;51.098;13.770;2022-07-22T02:07:37;26.90;49.20
65752;DHT22;52486;51.098;13.770;2022-07-22T02:10:04;26.90;49.20
65752;DHT22;52486;51.098;13.770;2022-07-22T02:12:30;26.90;49.20
65752;DHT22;52486;51.098;13.770;2022-07-22T02:14:56;26.90;49.10
65752;DHT22;52486;51.098;13.770;2022-07-22T02:17:22;26.90;49.20
65752;DHT22;52486;51.098;13.770;2022-07-22T02:19:47;26.90;49.10
65752;DHT22;52486;51.098;13.770;2022-07-22T02:22:13;26.90;49.10
65752;DHT22;52486;51.098;13.770;2022-07-22T02:24:39;26.90;49.10
65752;DHT22;52486;51.098;13.770;2022-07-22T02:27:04;26.90;49.10
65752;DHT22;52486;51.098;13.770;2022-07-22T02:29:31;26.90;49.10
65752;DHT22;52486;51.098;13.770;2022-07-22T02:31:56;26.90;49.10
65752;DHT22;52486;51.098;13.770;2022-07-22T02:34:22;26.90;49.10
65752;DHT22;52486;51.098;13.770;2022-07-22T02:36:48;26.90;49.10
65752;DHT22;52486;51.098;13.770;2022-07-22T02:39:13;26.90;49.10
65752;DHT22;52486;51.098;13.770;2022-07-22T02:41:39;26.90;49.10
65752;DHT22;52486;51.098;13.770;2022-07-22T02:44:05;26.90;49.00
65752;DHT22;52486;51.098;13.770;2022-07-22T02:46:30;26.90;49.00
65752;DHT22;52486;51.098;13.770;2022-07-22T02:48:56;26.90;49.00
65752;DHT22;52486;51.098;13.770;2022-07-22T02:51:22;26.90;49.00
65752;DHT22;52486;51.098;13.770;2022-07-22T02:53:48;26.90;49.00
65752;DHT22;52486;51.098;13.770;2022-07-22T02:56:14;26.90;49.00
65752;DHT22;52486;51.098;13.770;2022-07-22T02:58:40;26.90;48.90
65752;DHT22;52486;51.098;13.770;2022-07-22T03:01:06;26.90;49.00
65752;DHT22;52486;51.098;13.770;2022-07-22T03:03:32;26.90;48.90
65752;DHT22;52486;51.098;13.770;2022-07-22T03:05:58;26.90;49.00
65752;DHT22;52486;51.098;13.770;2022-07-22T03:08:24;26.90;48.90
65752;DHT22;52486;51.098;13.770;2022-07-22T03:10:50;26.90;48.90
65752;DHT22;52486;51.098;13.770;2022-07-22T03:13:16;26.90;48.90
65752;DHT22;52486;51.098;13.770;2022-07-22T03:15:42;26.90;48.90
65752;DHT22;52486;51.098;13.770;2022-07-22T03:18:08;26.90;48.90
65752;DHT22;52486;51.098;13.770;2022-07-22T03:20:34;26.90;48.90
65752;DHT22;52486;51.098;13.770;2022-07-22T03:23:00;26.90;48.80
65752;DHT22;52486;51.098;13.770;2022-07-22T03:25:26;26.90;48.80
65752;DHT22;52486;51.098;13.770;2022-07-22T03:27:52;26.90;48.80
65752;DHT22;52486;51.098;13.770;2022-07-22T03:30:17;26.90;48.80
65752;DHT22;52486;51.098;13.770;2022-07-22T03:32:43;26.90;48.80
65752;DHT22;52486;51.098;13.770;2022-07-22T03:35:12;26.90;48.80
65752;DHT22;52486;51.098;13.770;2022-07-22T03:37:39;26.90;48.80
65752;DHT22;52486;51.098;13.770;2022-07-22T03:40:05;26.90;48.80
65752;DHT22;52486;51.098;13.770;2022-07-22T03:42:31;26.90;48.80
65752;DHT22;52486;51.098;13.770;2022-07-22T03:44:56;26.90;48.80
65752;DHT22;52486;51.098;13.770;2022-07-22T03:47:22;26.90;48.80
65752;DHT22;52486;51.098;13.770;2022-07-22T03:49:49;26.90;48.70
65752;DHT22;52486;51.098;13.770;2022-07-22T03:52:15;26.90;48.80
65752;DHT22;52486;51.098;13.770;2022-07-22T03:54:42;26.90;48.70
65752;DHT22;52486;51.098;13.770;2022-07-22T03:57:09;26.90;48.70
65752;DHT22;52486;51.098;13.770;2022-07-22T03:59:35;26.90;48.70
65752;DHT22;52486;51.098;13.770;2022-07-22T04:02:01;26.90;48.70
65752;DHT22;52486;51.098;13.770;2022-07-22T04:04:27;26.90;48.70
65752;DHT22;52486;51.098;13.770;2022-07-22T04:06:52;26.90;48.70
65752;DHT22;52486;51.098;13.770;2022-07-22T04:09:18;26.90;48.60
65752;DHT22;52486;51.098;13.770;2022-07-22T04:11:44;26.90;48.60
65752;DHT22;52486;51.098;13.770;2022-07-22T04:14:10;26.90;48.60
65752;DHT22;52486;51.098;13.770;2022-07-22T04:16:35;26.90;48.60
65752;DHT22;52486;51.098;13.770;2022-07-22T04:19:02;26.90;48.60
65752;DHT22;52486;51.098;13.770;2022-07-22T04:21:28;26.90;48.60
65752;DHT22;52486;51.098;13.770;2022-07-22T04:23:54;26.90;48.50
65752;DHT22;52486;51.098;13.770;2022-07-22T04:26:21;26.90;48.60
65752;DHT22;52486;51.098;13.770;2022-07-22T04:28:47;26.90;48.50
65752;DHT22;52486;51.098;13.770;2022-07-22T04:31:13;26.90;48.60
65752;DHT22;52486;51.098;13.770;2022-07-22T04:33:39;26.90;48.50
65752;DHT22;52486;51.098;13.770;2022-07-22T04:36:05;26.90;48.60
65752;DHT22;52486;51.098;13.770;2022-07-22T04:38:30;26.90;48.50
65752;DHT22;52486;51.098;13.770;2022-07-22T04:40:56;26.90;48.50
65752;DHT22;52486;51.098;13.770;2022-07-22T04:43:22;26.90;48.50
65752;DHT22;52486;51.098;13.770;2022-07-22T04:45:47;26.90;48.50
65752;DHT22;52486;51.098;13.770;2022-07-22T04:48:13;27.00;48.60
65752;DHT22;52486;51.098;13.770;2022-07-22T04:50:39;27.00;48.60
65752;DHT22;52486;51.098;13.770;2022-07-22T04:53:04;27.00;48.50
65752;DHT22;52486;51.098;13.770;2022-07-22T04:55:30;27.00;48.50
65752;DHT22;52486;51.098;13.770;2022-07-22T04:57:56;27.00;48.50
65752;DHT22;52486;51.098;13.770;2022-07-22T05:00:22;27.00;48.50
65752;DHT22;52486;51.098;13.770;2022-07-22T05:02:47;27.00;48.50
65752;DHT22;52486;51.098;13.770;2022-07-22T05:05:13;27.00;48.40
65752;DHT22;52486;51.098;13.770;2022-07-22T05:07:39;27.00;48.40
65752;DHT22;52486;51.098;13.770;2022-07-22T05:10:05;27.00;48.40
65752;DHT22;52486;51.098;13.770;2022-07-22T05:12:30;27.00;48.40
65752;DHT22;52486;51.098;13.770;2022-07-22T05:14:56;27.00;48.40
65752;DHT22;52486;51.098;13.770;2022-07-22T05:17:22;27.00;48.40
65752;DHT22;52486;51.098;13.770;2022-07-22T05:19:48;27.00;48.40
65752;DHT22;52486;51.098;13.770;2022-07-22T05:22:13;27.00;48.40
65752;DHT22;52486;51.098;13.770;2022-07-22T05:24:39;27.00;48.40
65752;DHT22;52486;51.098;13.770;2022-07-22T05:27:04;27.00;48.40
65752;DHT22;52486;51.098;13.770;2022-07-22T05:29:30;27.00;48.40
65752;DHT22;52486;51.098;13.770;2022-07-22T05:31:56;27.00;48.30
65752;DHT22;52486;51.098;13.770;2022-07-22T05:34:22;27.00;48.30
65752;DHT22;52486;51.098;13.770;2022-07-22T05:36:47;27.00;48.30
65752;DHT22;52486;51.098;13.770;2022-07-22T05:39:13;27.00;48.30
65752;DHT22;52486;51.098;13.770;2022-07-22T05:41:39;27.00;48.30
65752;DHT22;52486;51.098;13.770;2022-07-22T05:44:05;27.00;48.30
65752;DHT22;52486;51.098;13.770;2022-07-22T05:46:31;27.00;48.30
65752;DHT22;52486;51.098;13.770;2022-07-22T05:48:56;27.00;50.70
65752;DHT22;52486;51.098;13.770;2022-07-22T05:51:22;26.80;50.20
65752;DHT22;52486;51.098;13.770;2022-07-22T05:53:48;26.70;49.60
65752;DHT22;52486;51.098;13.770;2022-07-22T05:56:14;26.50;49.30
65752;DHT22;52486;51.098;13.770;2022-07-22T05:58:41;26.30;49.30
65752;DHT22;52486;51.098;13.770;2022-07-22T06:01:08;26.20;49.30
65752;DHT22;52486;51.098;13.770;2022-07-22T06:03:34;26.00;49.20
65752;DHT22;52486;51.098;13.770;2022-07-22T06:06:00;25.80;49.10
65752;DHT22;52486;51.098;13.770;2022-07-22T06:08:30;25.70;48.70
65752;DHT22;52486;51.098;13.770;2022-07-22T06:10:59;25.60;48.30
65752;DHT22;52486;51.098;13.770;2022-07-22T06:13:25;25.50;47.80
65752;DHT22;52486;51.098;13.770;2022-07-22T06:15:51;25.40;49.00
65752;DHT22;52486;51.098;13.770;2022-07-22T06:18:16;25.20;48.70
65752;DHT22;52486;51.098;13.770;2022-07-22T06:20:42;25.10;48.60
65752;DHT22;52486;51.098;13.770;2022-07-22T06:23:08;25.00;48.40
65752;DHT22;52486;51.098;13.770;2022-07-22T06:25:33;24.90;48.40
65752;DHT22;52486;51.098;13.770;2022-07-22T06:27:59;24.80;48.40
65752;DHT22;52486;51.098;13.770;2022-07-22T06:30:24;24.70;48.60
65752;DHT22;52486;51.098;13.770;2022-07-22T06:32:52;24.60;48.90
65752;DHT22;52486;51.098;13.770;2022-07-22T06:35:17;24.50;49.00
65752;DHT22;52486;51.098;13.770;2022-07-22T06:37:43;24.40;49.20
65752;DHT22;52486;51.098;13.770;2022-07-22T06:40:09;24.40;49.50
65752;DHT22;52486;51.098;13.770;2022-07-22T06:42:35;24.30;49.70
65752;DHT22;52486;51.098;13.770;2022-07-22T06:45:01;24.20;49.80
65752;DHT22;52486;51.098;13.770;2022-07-22T06:47:26;24.20;49.90
65752;DHT22;52486;51.098;13.770;2022-07-22T06:49:52;24.10;50.10
65752;DHT22;52486;51.098;13.770;2022-07-22T06:52:17;24.00;50.10
65752;DHT22;52486;51.098;13.770;2022-07-22T06:54:43;24.00;49.90
65752;DHT22;52486;51.098;13.770;2022-07-22T06:57:09;23.90;49.60
65752;DHT22;52486;51.098;13.770;2022-07-22T06:59:34;23.80;49.70
65752;DHT22;52486;51.098;13.770;2022-07-22T07:02:00;23.80;49.70
65752;DHT22;52486;51.098;13.770;2022-07-22T07:04:26;23.80;50.00
65752;DHT22;52486;51.098;13.770;2022-07-22T07:06:51;23.70;50.20
65752;DHT22;52486;51.098;13.770;2022-07-22T07:09:17;23.70;50.20
65752;DHT22;52486;51.098;13.770;2022-07-22T07:11:42;23.60;50.50
65752;DHT22;52486;51.098;13.770;2022-07-22T07:14:08;23.50;50.70
65752;DHT22;52486;51.098;13.770;2022-07-22T07:16:34;23.50;51.10
65752;DHT22;52486;51.098;13.770;2022-07-22T07:18:59;23.50;51.30
65752;DHT22;52486;51.098;13.770;2022-07-22T07:21:25;23.50;51.40
65752;DHT22;52486;51.098;13.770;2022-07-22T07:23:51;23.50;54.50
65752;DHT22;52486;51.098;13.770;2022-07-22T07:26:16;23.50;53.90
65752;DHT22;52486;51.098;13.770;2022-07-22T07:28:42;23.50;53.20
65752;DHT22;52486;51.098;13.770;2022-07-22T07:31:08;23.50;53.20
65752;DHT22;52486;51.098;13.770;2022-07-22T07:33:34;23.40;53.10
65752;DHT22;52486;51.098;13.770;2022-07-22T07:36:00;23.40;53.30
65752;DHT22;52486;51.098;13.770;2022-07-22T07:38:25;23.40;53.50
65752;DHT22;52486;51.098;13.770;2022-07-22T07:40:51;23.40;53.50
65752;DHT22;52486;51.098;13.770;2022-07-22T07:43:17;23.40;53.30
65752;DHT22;52486;51.098;13.770;2022-07-22T07:45:43;23.40;53.10
65752;DHT22;52486;51.098;13.770;2022-07-22T07:48:09;23.30;52.80
65752;DHT22;52486;51.098;13.770;2022-07-22T07:50:35;23.30;52.80
65752;DHT22;52486;51.098;13.770;2022-07-22T07:53:01;23.30;53.10
65752;DHT22;52486;51.098;13.770;2022-07-22T07:55:26;23.30;53.30
65752;DHT22;52486;51.098;13.770;2022-07-22T07:57:52;23.30;53.30
65752;DHT22;52486;51.098;13.770;2022-07-22T08:00:22;23.30;53.30
65752;DHT22;52486;51.098;13.770;2022-07-22T08:02:48;23.20;54.80
65752;DHT22;52486;51.098;13.770;2022-07-22T08:05:13;23.20;54.10
65752;DHT22;52486;51.098;13.770;2022-07-22T08:07:39;23.20;53.80
65752;DHT22;52486;51.098;13.770;2022-07-22T08:10:07;23.20;53.60
65752;DHT22;52486;51.098;13.770;2022-07-22T08:12:33;23.20;53.60
65752;DHT22;52486;51.098;13.770;2022-07-22T08:14:58;23.10;53.70
65752;DHT22;52486;51.098;13.770;2022-07-22T08:17:24;23.10;52.40
65752;DHT22;52486;51.098;13.770;2022-07-22T08:19:50;23.00;52.10
65752;DHT22;52486;51.098;13.770;2022-07-22T08:22:15;23.00;51.90
65752;DHT22;52486;51.098;13.770;2022-07-22T08:24:41;23.00;52.00
65752;DHT22;52486;51.098;13.770;2022-07-22T08:27:07;23.00;52.30
65752;DHT22;52486;51.098;13.770;2022-07-22T08:29:32;22.90;52.20
65752;DHT22;52486;51.098;13.770;2022-07-22T08:31:58;22.90;52.00
65752;DHT22;52486;51.098;13.770;2022-07-22T08:34:24;22.90;51.90
65752;DHT22;52486;51.098;13.770;2022-07-22T08:36:49;22.80;51.90
65752;DHT22;52486;51.098;13.770;2022-07-22T08:39:15;22.80;51.80
65752;DHT22;52486;51.098;13.770;2022-07-22T08:41:41;22.80;51.80
65752;DHT22;52486;51.098;13.770;2022-07-22T08:44:09;22.80;51.80
65752;DHT22;52486;51.098;13.770;2022-07-22T08:46:35;22.80;52.50
65752;DHT22;52486;51.098;13.770;2022-07-22T08:49:01;22.70;51.50
65752;DHT22;52486;51.098;13.770;2022-07-22T08:51:27;22.70;51.50
65752;DHT22;52486;51.098;13.770;2022-07-22T08:53:54;22.70;51.50
65752;DHT22;52486;51.098;13.770;2022-07-22T08:56:20;22.70;51.60
65752;DHT22;52486;51.098;13.770;2022-07-22T08:58:46;22.70;51.80
65752;DHT22;52486;51.098;13.770;2022-07-22T09:01:14;22.70;51.80
65752;DHT22;52486;51.098;13.770;2022-07-22T09:03:48;22.70;51.40
65752;DHT22;52486;51.098;13.770;2022-07-22T09:06:22;22.60;51.10
65752;DHT22;52486;51.098;13.770;2022-07-22T09:08:59;22.60;51.00
65752;DHT22;52486;51.098;13.770;2022-07-22T09:11:27;22.60;51.10
65752;DHT22;52486;51.098;13.770;2022-07-22T09:13:58;22.50;51.20
65752;DHT22;52486;51.098;13.770;2022-07-22T09:16:43;22.50;51.20
65752;DHT22;52486;51.098;13.770;2022-07-22T09:19:10;22.50;51.70
65752;DHT22;52486;51.098;13.770;2022-07-22T09:21:43;22.50;50.80
65752;DHT22;52486;51.098;13.770;2022-07-22T09:24:27;22.50;51.00
65752;DHT22;52486;51.098;13.770;2022-07-22T09:26:55;22.50;52.00
65752;DHT22;52486;51.098;13.770;2022-07-22T09:29:20;22.50;51.80
65752;DHT22;52486;51.098;13.770;2022-07-22T09:31:50;22.50;51.90
65752;DHT22;52486;51.098;13.770;2022-07-22T09:34:27;22.50;51.70
65752;DHT22;52486;51.098;13.770;2022-07-22T09:36:58;22.40;51.30
65752;DHT22;52486;51.098;13.770;2022-07-22T09:39:25;22.40;51.50
65752;DHT22;52486;51.098;13.770;2022-07-22T09:42:03;22.50;51.90
65752;DHT22;52486;51.098;13.770;2022-07-22T09:44:29;22.50;52.30
65752;DHT22;52486;51.098;13.770;2022-07-22T09:46:54;22.40;52.10
65752;DHT22;52486;51.098;13.770;2022-07-22T09:49:34;22.40;52.00
65752;DHT22;52486;51.098;13.770;2022-07-22T09:52:01;22.40;51.80
65752;DHT22;52486;51.098;13.770;2022-07-22T09:54:28;22.50;51.50
65752;DHT22;52486;51.098;13.770;2022-07-22T09:56:55;22.40;51.30
65752;DHT22;52486;51.098;13.770;2022-07-22T09:59:20;22.40;51.30
65752;DHT22;52486;51.098;13.770;2022-07-22T10:01:47;22.40;51.40
65752;DHT22;52486;51.098;13.770;2022-07-22T10:04:15;22.40;51.40
65752;DHT22;52486;51.098;13.770;2022-07-22T10:06:42;22.40;51.40
65752;DHT22;52486;51.098;13.770;2022-07-22T10:09:10;22.40;51.40
65752;DHT22;52486;51.098;13.770;2022-07-22T10:11:37;22.40;51.30
65752;DHT22;52486;51.098;13.770;2022-07-22T10:14:04;22.40;51.20
65752;DHT22;52486;51.098;13.770;2022-07-22T10:16:30;22.40;51.20
65752;DHT22;52486;51.098;13.770;2022-07-22T10:18:56;22.50;51.70
65752;DHT22;52486;51.098;13.770;2022-07-22T10:21:31;22.50;52.30
65752;DHT22;52486;51.098;13.770;2022-07-22T10:26:56;22.60;52.70
65752;DHT22;52486;51.098;13.770;2022-07-22T10:29:31;22.70;52.70
65752;DHT22;52486;51.098;13.770;2022-07-22T10:37:39;22.90;52.30
65752;DHT22;52486;51.098;13.770;2022-07-22T10:40:20;23.00;52.90
65752;DHT22;52486;51.098;13.770;2022-07-22T10:51:08;23.40;53.30
65752;DHT22;52486;51.098;13.770;2022-07-22T11:01:18;23.80;51.90
65752;DHT22;52486;51.098;13.770;2022-07-22T11:03:46;23.80;51.30
65752;DHT22;52486;51.098;13.770;2022-07-22T11:06:13;24.00;50.70
65752;DHT22;52486;51.098;13.770;2022-07-22T11:08:40;23.90;50.40
65752;DHT22;52486;51.098;13.770;2022-07-22T11:11:06;23.90;50.20
65752;DHT22;52486;51.098;13.770;2022-07-22T11:13:32;23.90;50.30
65752;DHT22;52486;51.098;13.770;2022-07-22T11:16:18;23.90;50.40
65752;DHT22;52486;51.098;13.770;2022-07-22T11:18:53;23.90;50.60
65752;DHT22;52486;51.098;13.770;2022-07-22T11:21:23;23.90;50.50
65752;DHT22;52486;51.098;13.770;2022-07-22T11:23:53;24.00;50.50
65752;DHT22;52486;51.098;13.770;2022-07-22T11:26:44;24.00;50.40
65752;DHT22;52486;51.098;13.770;2022-07-22T11:29:18;24.00;50.10
65752;DHT22;52486;51.098;13.770;2022-07-22T11:31:48;24.00;50.00
65752;DHT22;52486;51.098;13.770;2022-07-22T11:34:15;24.00;49.70
65752;DHT22;52486;51.098;13.770;2022-07-22T11:36:42;24.10;49.70
65752;DHT22;52486;51.098;13.770;2022-07-22T11:39:10;24.10;50.40
65752;DHT22;52486;51.098;13.770;2022-07-22T11:41:37;24.20;50.60
65752;DHT22;52486;51.098;13.770;2022-07-22T11:44:03;24.20;51.00
65752;DHT22;52486;51.098;13.770;2022-07-22T11:46:38;24.20;51.40
65752;DHT22;52486;51.098;13.770;2022-07-22T11:49:05;24.30;51.40
65752;DHT22;52486;51.098;13.770;2022-07-22T11:51:32;24.30;51.30
65752;DHT22;52486;51.098;13.770;2022-07-22T11:53:59;24.30;51.00
65752;DHT22;52486;51.098;13.770;2022-07-22T11:56:26;24.30;50.60
65752;DHT22;52486;51.098;13.770;2022-07-22T11:58:52;24.30;50.30
65752;DHT22;52486;51.098;13.770;2022-07-22T12:01:24;24.30;49.90
65752;DHT22;52486;51.098;13.770;2022-07-22T12:03:59;24.40;49.50
65752;DHT22;52486;51.098;13.770;2022-07-22T12:06:26;24.40;49.20
65752;DHT22;52486;51.098;13.770;2022-07-22T12:09:01;24.40;49.00
65752;DHT22;52486;51.098;13.770;2022-07-22T12:11:28;24.40;48.60
65752;DHT22;52486;51.098;13.770;2022-07-22T12:13:54;24.40;48.60
65752;DHT22;52486;51.098;13.770;2022-07-22T12:16:28;24.40;48.40
65752;DHT22;52486;51.098;13.770;2022-07-22T12:19:13;24.40;48.30
65752;DHT22;52486;51.098;13.770;2022-07-22T12:24:40;24.40;49.50
65752;DHT22;52486;51.098;13.770;2022-07-22T12:27:16;24.40;49.10
65752;DHT22;52486;51.098;13.770;2022-07-22T12:29:47;24.40;48.60
65752;DHT22;52486;51.098;13.770;2022-07-22T12:32:17;24.40;48.50
65752;DHT22;52486;51.098;13.770;2022-07-22T12:37:21;24.30;48.40
65752;DHT22;52486;51.098;13.770;2022-07-22T12:40:03;24.30;48.60
65752;DHT22;52486;51.098;13.770;2022-07-22T12:42:32;24.30;48.60
65752;DHT22;52486;51.098;13.770;2022-07-22T12:45:05;24.20;48.70
65752;DHT22;52486;51.098;13.770;2022-07-22T12:48:27;24.20;48.30
65752;DHT22;52486;51.098;13.770;2022-07-22T12:50:40;24.20;48.30
65752;DHT22;52486;51.098;13.770;2022-07-22T12:53:08;24.30;48.20
65752;DHT22;52486;51.098;13.770;2022-07-22T12:55:37;24.40;48.20
65752;DHT22;52486;51.098;13.770;2022-07-22T12:58:05;24.50;48.20
65752;DHT22;52486;51.098;13.770;2022-07-22T13:00:33;24.60;48.10
65752;DHT22;52486;51.098;13.770;2022-07-22T13:02:59;24.70;48.00
65752;DHT22;52486;51.098;13.770;2022-07-22T13:05:25;24.80;48.00
65752;DHT22;52486;51.098;13.770;2022-07-22T13:07:52;24.90;48.00
65752;DHT22;52486;51.098;13.770;2022-07-22T13:10:24;25.00;47.80
65752;DHT22;52486;51.098;13.770;2022-07-22T13:12:51;25.10;47.70
65752;DHT22;52486;51.098;13.770;2022-07-22T13:15:18;25.20;47.70
65752;DHT22;52486;51.098;13.770;2022-07-22T13:17:44;25.20;47.70
65752;DHT22;52486;51.098;13.770;2022-07-22T13:20:12;25.30;47.60
65752;DHT22;52486;51.098;13.770;2022-07-22T13:22:39;25.40;47.70
65752;DHT22;52486;51.098;13.770;2022-07-22T13:25:05;25.50;47.70
65752;DHT22;52486;51.098;13.770;2022-07-22T13:27:31;25.50;47.60
65752;DHT22;52486;51.098;13.770;2022-07-22T13:29:57;25.60;47.50
65752;DHT22;52486;51.098;13.770;2022-07-22T13:32:22;25.70;47.50
65752;DHT22;52486;51.098;13.770;2022-07-22T13:34:48;25.80;47.50
65752;DHT22;52486;51.098;13.770;2022-07-22T13:37:14;25.80;47.60
65752;DHT22;52486;51.098;13.770;2022-07-22T13:39:39;25.90;47.60
65752;DHT22;52486;51.098;13.770;2022-07-22T13:42:12;25.90;47.70
65752;DHT22;52486;51.098;13.770;2022-07-22T13:44:38;26.00;47.60
65752;DHT22;52486;51.098;13.770;2022-07-22T13:47:04;26.00;47.70
65752;DHT22;52486;51.098;13.770;2022-07-22T13:49:30;26.10;47.60
65752;DHT22;52486;51.098;13.770;2022-07-22T13:51:55;26.20;47.70
65752;DHT22;52486;51.098;13.770;2022-07-22T13:54:21;26.20;47.60
65752;DHT22;52486;51.098;13.770;2022-07-22T13:56:47;26.30;47.70
65752;DHT22;52486;51.098;13.770;2022-07-22T13:59:14;26.40;47.70
65752;DHT22;52486;51.098;13.770;2022-07-22T14:01:40;26.40;47.70
65752;DHT22;52486;51.098;13.770;2022-07-22T14:04:06;26.50;47.60
65752;DHT22;52486;51.098;13.770;2022-07-22T14:06:32;26.50;48.30
65752;DHT22;52486;51.098;13.770;2022-07-22T14:08:58;26.60;47.60
65752;DHT22;52486;51.098;13.770;2022-07-22T14:11:24;26.60;47.50
65752;DHT22;52486;51.098;13.770;2022-07-22T14:13:50;26.60;47.50
65752;DHT22;52486;51.098;13.770;2022-07-22T14:16:16;26.70;47.60
65752;DHT22;52486;51.098;13.770;2022-07-22T14:19:07;26.70;47.50
65752;DHT22;52486;51.098;13.770;2022-07-22T14:21:35;26.80;47.50
65752;DHT22;52486;51.098;13.770;2022-07-22T14:24:02;26.80;47.40
65752;DHT22;52486;51.098;13.770;2022-07-22T14:26:28;26.90;47.50
65752;DHT22;52486;51.098;13.770;2022-07-22T14:28:54;26.90;47.40
65752;DHT22;52486;51.098;13.770;2022-07-22T14:31:20;27.00;47.40
65752;DHT22;52486;51.098;13.770;2022-07-22T14:33:46;27.00;47.40
65752;DHT22;52486;51.098;13.770;2022-07-22T14:36:12;27.00;47.30
65752;DHT22;52486;51.098;13.770;2022-07-22T14:38:37;27.10;48.00
65752;DHT22;52486;51.098;13.770;2022-07-22T14:41:03;27.10;47.30
65752;DHT22;52486;51.098;13.770;2022-07-22T14:43:29;27.10;47.20
65752;DHT22;52486;51.098;13.770;2022-07-22T14:45:54;27.10;47.20
65752;DHT22;52486;51.098;13.770;2022-07-22T14:48:20;27.20;47.30
65752;DHT22;52486;51.098;13.770;2022-07-22T14:50:46;27.20;47.20
65752;DHT22;52486;51.098;13.770;2022-07-22T14:53:12;27.30;47.20
65752;DHT22;52486;51.098;13.770;2022-07-22T14:55:38;27.30;47.20
65752;DHT22;52486;51.098;13.770;2022-07-22T14:58:04;27.30;47.10
65752;DHT22;52486;51.098;13.770;2022-07-22T15:00:30;27.40;47.20
65752;DHT22;52486;51.098;13.770;2022-07-22T15:02:55;27.40;47.10
65752;DHT22;52486;51.098;13.770;2022-07-22T15:05:21;27.40;47.10
65752;DHT22;52486;51.098;13.770;2022-07-22T15:07:47;27.40;47.10
65752;DHT22;52486;51.098;13.770;2022-07-22T15:10:13;27.50;47.20
65752;DHT22;52486;51.098;13.770;2022-07-22T15:12:38;27.50;47.10
65752;DHT22;52486;51.098;13.770;2022-07-22T15:15:04;27.50;47.00
65752;DHT22;52486;51.098;13.770;2022-07-22T15:17:34;27.50;47.00
65752;DHT22;52486;51.098;13.770;2022-07-22T15:20:00;27.60;47.10
65752;DHT22;52486;51.098;13.770;2022-07-22T15:22:25;27.60;47.00
65752;DHT22;52486;51.098;13.770;2022-07-22T15:24:53;27.60;47.00
65752;DHT22;52486;51.098;13.770;2022-07-22T15:27:19;27.60;47.70
65752;DHT22;52486;51.098;13.770;2022-07-22T15:29:45;27.60;46.90
65752;DHT22;52486;51.098;13.770;2022-07-22T15:32:14;27.70;47.00
65752;DHT22;52486;51.098;13.770;2022-07-22T15:34:40;27.70;47.00
65752;DHT22;52486;51.098;13.770;2022-07-22T15:37:05;27.70;47.00
65752;DHT22;52486;51.098;13.770;2022-07-22T15:39:31;27.70;46.90
65752;DHT22;52486;51.098;13.770;2022-07-22T15:41:57;27.70;47.00
65752;DHT22;52486;51.098;13.770;2022-07-22T15:44:23;27.70;47.00